FVMV

Masvingo International Airport

Masvingo, Zimbabwe
METAR FVMV 221500Z 17008KT 9999 FEW040 23/15 Q1019
Observed Flight Rules
Apr-22 @ 15:00 UTC (3 hours ago) Visual Flight Rules
Wind Visibility Clouds
170° at 8 knots 10,000+ meters
  • Few at 4,000' AGL
Temperatures Readings
Current 23°C / 73°F
Dewpoint 15°C / 59°F
Humidity 61%
Altimeter 30.09" Hg
Pressure 1019 hPa
Elevation 1095
METAR FVMV 221500Z 17008KT 9999 FEW040 23/15 Q1019
Observed Flight Rules
Apr-22 @ 15:00 UTC
(3 hours ago)
VFR
Wind Visibility
170° at 8 knots 10,000+ meters
Clouds
  • Few at 4,000' AGL
Temperature Dewpoint
23°C / 73°F 15°C / 59°F
Humidity Altimeter Pressure
61% 30.09" Hg 1019 hPa